Charlesbourg, Canada
Current Conditions -  °F | °C
As of 1:00 AM on Sunday 23 Nov 2014 (Local Time) from CYQB Reporting Station
Haze Haze  
Wind Chill: 24°   Ceiling: 500
Heat Index: 34°   Visibility: 5mi
Dew Point: 32°   Wind: 16mph
Humidity: 93%   Direction: 230°SW
Pressure: 29.84"   Gusts: NA
Location:  46.86°N, 71.27°W
Report Text: CYQB 230600Z 23014KT 5SM BR OVC005 01/M00 A2984 RMK ST8 WND ESTD SLP108
Loading
Personal Weather Stations






























Interactive Weather Map New forecast layout! Learn more

10-Day Weather Forecast

Advertisements
Track Severe Weather on mobile